Terminal Aerodrome Forecast
Issued by NWS Springfield, MO

Home | Current Version | Previous Version | Text Only | Print | Product List | Glossary On
Versions: 1 2 3 4 5 6 7 8 9 10 11 12 13 14 15 16 17 18 19 20
000
FTUS43 KSGF 012105 AAA
TAFSGF
TAF AMD
KSGF 012105Z 0121/0218 28010G15KT P6SM SCT050
     FM020100 31008KT P6SM SCT150
     FM020300 30004KT P6SM SCT110
     FM020500 34008KT P6SM BKN070
     FM020600 36010KT P6SM BKN025
     FM020700 01009KT P6SM BKN008
     FM021500 34004KT P6SM OVC008
     FM021700 32004KT P6SM OVC015=

USA.gov is the U.S. government's official web portal to all federal, state and local government web resources and services.